Time;durP1;ratioP1;P1;durP2;ratioP2;P2;SDS_P1;SDS_P2;PMS_P1;PMS_P2;Temp;Humidity;BMP_temperature;BMP_pressure;BME280_temperature;BME280_humidity;BME280_pressure;Samples;Min_cycle;Max_cycle;Signal;HPM_P1;HPM_P2
2021/11/07 00:06:57;;;;;;;1.40;1.30;;;13.30;79.90;;;;;;5113101;28;20052;-61
2021/11/07 00:11:57;;;;;;;1.75;1.20;;;13.20;79.90;;;;;;5136075;27;20148;-60
2021/11/07 00:14:23;;;;;;;1.00;0.90;;;13.20;79.90;;;;;;5151241;27;20134;-61
2021/11/07 00:16:50;;;;;;;1.70;1.20;;;13.20;79.80;;;;;;5137210;27;20122;-60
2021/11/07 00:19:35;;;;;;;1.10;1.00;;;13.20;79.90;;;;;;5136603;27;20503;-60
2021/11/07 00:30:05;;;;;;;0.90;0.90;;;13.20;79.80;;;;;;5136644;27;20452;-60
2021/11/07 00:37:37;;;;;;;1.42;1.30;;;13.10;79.80;;;;;;5118123;27;20047;-60
2021/11/07 00:43:54;;;;;;;1.45;1.13;;;13.20;79.90;;;;;;5135045;27;20483;-61
2021/11/07 00:46:01;;;;;;;1.38;0.98;;;13.20;79.90;;;;;;5119161;27;20062;-61
2021/11/07 00:48:33;;;;;;;1.10;1.00;;;13.20;79.90;;;;;;5135268;27;20039;-61
2021/11/07 00:51:30;;;;;;;1.15;1.00;;;13.30;79.90;;;;;;5133886;27;20058;-61
2021/11/07 00:56:48;;;;;;;2.05;1.15;;;13.20;79.90;;;;;;5135650;27;20046;-61
2021/11/07 01:02:04;;;;;;;1.83;1.08;;;13.20;79.90;;;;;;5136164;27;20047;-61
2021/11/07 01:04:30;;;;;;;1.00;0.90;;;13.20;79.90;;;;;;5134290;27;20088;-61
2021/11/07 01:06:56;;;;;;;2.38;1.10;;;13.20;79.90;;;;;;5135339;27;20035;-61
2021/11/07 01:09:22;;;;;;;1.58;1.05;;;13.30;80.00;;;;;;5136371;27;20042;-61
2021/11/07 01:11:48;;;;;;;1.20;0.98;;;13.30;80.00;;;;;;5135742;27;20080;-61
2021/11/07 01:14:14;;;;;;;1.05;0.93;;;13.20;79.90;;;;;;5135694;27;20035;-61
2021/11/07 01:16:42;;;;;;;1.63;1.13;;;13.20;79.90;;;;;;5135171;27;20035;-61
2021/11/07 01:19:09;;;;;;;1.52;1.20;;;13.20;79.90;;;;;;5135259;27;20059;-61
2021/11/07 01:21:38;;;;;;;1.80;1.20;;;13.20;80.00;;;;;;5135520;27;20067;-61
2021/11/07 01:24:15;;;;;;;1.25;1.10;;;13.20;79.90;;;;;;5135925;27;20043;-61
2021/11/07 01:26:43;;;;;;;1.27;1.00;;;13.20;79.90;;;;;;5132769;27;20708;-61
2021/11/07 01:31:36;;;;;;;2.35;1.15;;;13.20;80.00;;;;;;5135072;27;20146;-61
2021/11/07 01:34:03;;;;;;;1.38;0.90;;;13.20;79.90;;;;;;5135425;27;20418;-61
2021/11/07 01:36:40;;;;;;;1.02;0.93;;;13.20;79.90;;;;;;5135358;27;20114;-61
2021/11/07 01:39:15;;;;;;;1.80;1.13;;;13.20;79.90;;;;;;5133376;27;20035;-61
2021/11/07 01:41:47;;;;;;;1.20;1.10;;;13.30;80.00;;;;;;5133042;27;20039;-61
2021/11/07 01:44:14;;;;;;;1.98;1.10;;;13.20;79.90;;;;;;5135354;27;20047;-61
2021/11/07 01:46:45;;;;;;;1.85;1.10;;;13.20;79.90;;;;;;5134970;27;20039;-61
2021/11/07 01:49:36;;;;;;;2.15;1.23;;;13.30;80.00;;;;;;5134712;27;20035;-61
2021/11/07 01:52:03;;;;;;;1.20;1.10;;;13.30;80.00;;;;;;5132198;27;20134;-61
2021/11/07 01:54:35;;;;;;;1.88;1.15;;;13.20;80.00;;;;;;5135160;27;20078;-61
2021/11/07 01:57:01;;;;;;;2.22;1.38;;;13.30;80.00;;;;;;5116541;27;20399;-61
2021/11/07 01:59:27;;;;;;;1.10;0.93;;;13.10;79.90;;;;;;5134751;27;20031;-61
2021/11/07 02:01:56;;;;;;;1.77;1.20;;;13.20;79.90;;;;;;5134490;27;20046;-61
2021/11/07 02:04:22;;;;;;;1.55;1.30;;;13.30;80.00;;;;;;5134584;27;20390;-61
2021/11/07 02:06:48;;;;;;;2.00;1.30;;;13.30;80.00;;;;;;5116233;27;20118;-61
2021/11/07 02:09:14;;;;;;;2.40;1.25;;;13.30;80.00;;;;;;5134445;27;20031;-60
2021/11/07 02:11:40;;;;;;;2.50;1.10;;;13.30;80.00;;;;;;5134740;27;20474;-60
2021/11/07 02:14:06;;;;;;;1.48;1.15;;;13.30;80.00;;;;;;5116331;27;20058;-61
2021/11/07 02:16:32;;;;;;;1.38;1.13;;;13.10;79.90;;;;;;5134645;27;20071;-61
2021/11/07 02:18:58;;;;;;;1.25;1.10;;;13.30;80.00;;;;;;5131283;27;20509;-61
2021/11/07 02:21:24;;;;;;;1.90;1.00;;;13.30;80.00;;;;;;5115565;27;20050;-61
2021/11/07 02:23:50;;;;;;;1.65;1.27;;;13.30;80.00;;;;;;5115769;27;20039;-61
2021/11/07 02:26:16;;;;;;;2.33;1.02;;;13.30;80.00;;;;;;5134674;27;20035;-61
2021/11/07 02:28:45;;;;;;;2.65;1.40;;;13.30;80.00;;;;;;5134214;27;20064;-61
2021/11/07 02:31:15;;;;;;;1.40;1.05;;;13.30;80.00;;;;;;5134251;27;20096;-61
2021/11/07 02:33:41;;;;;;;1.70;0.90;;;13.30;80.00;;;;;;5131894;27;20406;-61
2021/11/07 02:36:16;;;;;;;2.15;1.35;;;13.30;80.00;;;;;;5115517;27;20493;-61
2021/11/07 02:38:43;;;;;;;1.45;1.00;;;13.30;79.90;;;;;;5129407;27;20051;-61
2021/11/07 02:41:10;;;;;;;1.55;1.23;;;13.30;79.90;;;;;;5114831;27;20039;-61
2021/11/07 02:43:44;;;;;;;1.30;1.02;;;13.30;79.90;;;;;;5134079;27;20035;-61
2021/11/07 02:46:15;;;;;;;1.08;0.90;;;13.30;79.90;;;;;;5134217;27;20050;-61
2021/11/07 02:48:46;;;;;;;1.58;0.98;;;13.30;79.90;;;;;;5131617;27;20031;-59
2021/11/07 02:51:12;;;;;;;2.05;1.20;;;13.30;79.90;;;;;;5133522;27;20043;-61
2021/11/07 02:53:39;;;;;;;2.17;1.25;;;13.30;79.90;;;;;;5134183;27;20046;-62
2021/11/07 02:56:06;;;;;;;2.33;1.48;;;13.30;79.90;;;;;;5134051;27;20043;-60
2021/11/07 02:58:33;;;;;;;2.15;1.30;;;13.30;80.00;;;;;;5133907;27;20514;-61
2021/11/07 03:01:00;;;;;;;1.45;0.90;;;13.30;79.90;;;;;;5130842;27;20067;-61
2021/11/07 03:03:26;;;;;;;1.50;1.02;;;13.30;79.90;;;;;;5133736;27;20471;-62
2021/11/07 03:05:52;;;;;;;1.63;1.30;;;13.30;79.90;;;;;;5133136;27;20035;-60
2021/11/07 03:08:18;;;;;;;2.00;1.20;;;13.30;79.90;;;;;;5131068;27;20035;-61
2021/11/07 03:10:43;;;;;;;2.85;1.27;;;13.30;79.90;;;;;;5133062;27;20092;-61
2021/11/07 03:13:13;;;;;;;2.55;1.05;;;13.30;79.90;;;;;;5133618;27;20035;-61
2021/11/07 03:15:40;;;;;;;1.33;1.02;;;13.30;79.90;;;;;;5131088;27;20051;-61
2021/11/07 03:18:08;;;;;;;3.25;1.42;;;13.30;79.90;;;;;;5115079;27;20039;-61
2021/11/07 03:20:34;;;;;;;2.42;1.48;;;13.30;79.90;;;;;;5133176;27;20548;-59
2021/11/07 03:23:00;;;;;;;1.17;0.93;;;13.30;79.90;;;;;;5132744;27;20059;-61
2021/11/07 03:25:27;;;;;;;1.60;1.10;;;13.30;79.90;;;;;;5133583;27;20034;-61
2021/11/07 03:27:54;;;;;;;2.15;1.20;;;13.30;79.90;;;;;;5133556;27;20103;-61
2021/11/07 03:30:47;;;;;;;2.08;1.45;;;13.30;79.90;;;;;;5133304;27;20066;-61
2021/11/07 03:35:46;;;;;;;1.63;1.02;;;13.30;79.90;;;;;;5133408;27;20054;-61
2021/11/07 03:38:12;;;;;;;2.33;1.20;;;13.30;79.90;;;;;;5133037;27;20122;-61
2021/11/07 03:40:38;;;;;;;1.77;1.23;;;13.30;79.90;;;;;;5114588;28;20172;-60
2021/11/07 03:43:04;;;;;;;1.63;1.23;;;13.30;79.90;;;;;;5135930;27;20038;-61
2021/11/07 03:45:30;;;;;;;2.45;1.30;;;13.20;79.80;;;;;;5140107;27;20441;-61
2021/11/07 03:47:56;;;;;;;2.40;1.35;;;13.30;79.90;;;;;;5140109;27;20034;-61
2021/11/07 03:50:25;;;;;;;4.30;1.77;;;13.30;79.90;;;;;;5140221;27;20046;-61
2021/11/07 03:52:51;;;;;;;3.22;1.33;;;13.40;80.00;;;;;;5139408;27;20050;-61
2021/11/07 03:55:16;;;;;;;2.10;1.42;;;13.30;79.90;;;;;;5120787;27;20043;-61
2021/11/07 03:57:42;;;;;;;1.58;1.00;;;13.30;79.90;;;;;;5140343;27;20066;-61
2021/11/07 04:00:11;;;;;;;1.60;1.00;;;13.30;79.90;;;;;;5139927;27;20039;-61
2021/11/07 04:02:38;;;;;;;1.73;1.17;;;13.30;79.90;;;;;;5140042;27;20070;-60
2021/11/07 04:05:05;;;;;;;1.42;1.00;;;13.30;79.90;;;;;;5139393;27;20043;-60
2021/11/07 04:07:31;;;;;;;2.20;1.27;;;13.30;79.90;;;;;;5140279;27;20043;-61
2021/11/07 04:09:57;;;;;;;1.73;0.98;;;13.30;79.80;;;;;;5139295;27;20046;-61
2021/11/07 04:12:23;;;;;;;2.72;1.17;;;13.30;79.80;;;;;;5139856;27;20410;-60
2021/11/07 04:14:48;;;;;;;1.38;1.05;;;13.30;79.80;;;;;;5138832;27;20059;-61
2021/11/07 04:17:14;;;;;;;1.23;1.13;;;13.20;79.80;;;;;;5139004;27;20053;-61
2021/11/07 04:19:40;;;;;;;2.63;1.15;;;13.30;79.80;;;;;;5140072;27;20036;-60
2021/11/07 04:22:08;;;;;;;3.25;1.30;;;13.30;79.80;;;;;;5139758;27;20034;-60
2021/11/07 04:24:36;;;;;;;1.52;1.30;;;13.40;79.90;;;;;;5139024;27;20035;-59
2021/11/07 04:27:02;;;;;;;2.55;1.30;;;13.30;79.80;;;;;;5139249;27;20493;-61
2021/11/07 04:29:28;;;;;;;3.08;1.10;;;13.30;79.80;;;;;;5139751;27;20031;-60
2021/11/07 04:31:54;;;;;;;1.92;1.17;;;13.30;79.80;;;;;;5139641;27;20039;-61
2021/11/07 04:34:20;;;;;;;1.35;1.10;;;13.30;79.80;;;;;;5139718;27;20032;-61
2021/11/07 04:36:46;;;;;;;2.05;1.00;;;13.30;79.80;;;;;;5139150;27;20070;-61
2021/11/07 04:39:12;;;;;;;1.80;1.20;;;13.30;79.80;;;;;;5139635;27;20081;-60
2021/11/07 04:41:37;;;;;;;3.25;1.25;;;13.30;79.80;;;;;;5139221;27;20440;-61
2021/11/07 04:44:03;;;;;;;1.48;0.90;;;13.30;79.80;;;;;;5139831;27;20039;-61
2021/11/07 04:46:29;;;;;;;2.75;1.30;;;13.30;79.80;;;;;;5139027;27;20130;-61
2021/11/07 04:48:56;;;;;;;2.05;1.30;;;13.30;79.80;;;;;;5139537;27;20081;-61
2021/11/07 04:51:21;;;;;;;1.95;1.27;;;13.30;79.80;;;;;;5139637;27;20031;-61
2021/11/07 04:53:47;;;;;;;1.10;0.85;;;13.30;79.80;;;;;;5138808;27;20186;-60
2021/11/07 04:56:14;;;;;;;1.23;0.93;;;13.30;79.80;;;;;;5135971;27;20118;-61
2021/11/07 04:58:40;;;;;;;2.75;1.40;;;13.40;79.80;;;;;;5134588;27;20053;-61
2021/11/07 05:01:06;;;;;;;2.10;1.33;;;13.30;79.80;;;;;;5136256;27;20039;-61
2021/11/07 05:03:32;;;;;;;3.92;1.20;;;13.30;79.70;;;;;;5136329;27;20523;-61
2021/11/07 05:05:58;;;;;;;2.70;1.15;;;13.30;79.80;;;;;;5136078;27;20106;-61
2021/11/07 05:08:24;;;;;;;1.92;1.23;;;13.30;79.80;;;;;;5135873;27;20039;-61
2021/11/07 05:10:50;;;;;;;2.60;1.05;;;13.30;79.70;;;;;;5135957;27;20047;-61
2021/11/07 05:13:16;;;;;;;2.03;1.10;;;13.30;79.70;;;;;;5135427;27;20050;-61
2021/11/07 05:15:42;;;;;;;1.90;1.10;;;13.30;79.70;;;;;;5116994;27;20039;-60
2021/11/07 05:18:08;;;;;;;1.63;1.00;;;13.40;79.80;;;;;;5135309;27;20062;-61
2021/11/07 05:20:33;;;;;;;1.90;1.02;;;13.30;79.70;;;;;;5135483;27;20047;-61
2021/11/07 05:22:59;;;;;;;1.83;1.00;;;13.30;79.80;;;;;;5114507;27;20039;-61
2021/11/07 05:25:25;;;;;;;2.15;1.10;;;13.30;79.70;;;;;;5135802;27;20043;-61
2021/11/07 05:27:50;;;;;;;1.02;0.90;;;13.30;79.70;;;;;;5116886;27;20498;-60
2021/11/07 05:30:17;;;;;;;1.67;1.02;;;13.30;79.70;;;;;;5134559;27;20399;-61
2021/11/07 05:32:45;;;;;;;2.35;1.33;;;13.40;79.80;;;;;;5135497;27;20402;-61
2021/11/07 05:35:12;;;;;;;1.98;1.30;;;13.30;79.80;;;;;;5135020;27;20498;-60
2021/11/07 05:37:38;;;;;;;3.45;0.98;;;13.30;79.70;;;;;;5135613;27;20455;-61
2021/11/07 05:40:07;;;;;;;2.55;1.20;;;13.30;79.70;;;;;;5135145;27;20063;-61
2021/11/07 05:42:33;;;;;;;1.33;0.90;;;13.30;79.70;;;;;;5134906;27;20045;-61
2021/11/07 05:44:59;;;;;;;0.93;0.90;;;13.30;79.70;;;;;;5135115;27;20039;-61
2021/11/07 05:47:24;;;;;;;3.30;1.10;;;13.30;79.70;;;;;;5135061;27;20084;-61
2021/11/07 05:49:50;;;;;;;1.40;1.20;;;13.30;79.70;;;;;;5116218;27;20047;-60
2021/11/07 05:52:17;;;;;;;1.95;1.20;;;13.30;79.70;;;;;;5134419;27;20039;-60
2021/11/07 05:54:44;;;;;;;1.92;1.10;;;13.30;79.70;;;;;;5135295;27;20126;-61
2021/11/07 05:57:10;;;;;;;2.58;1.10;;;13.30;79.70;;;;;;5134857;27;20035;-59
2021/11/07 05:59:35;;;;;;;1.52;1.05;;;13.30;79.70;;;;;;5134652;27;20023;-60
2021/11/07 06:02:01;;;;;;;2.00;0.85;;;13.30;79.70;;;;;;5134368;27;20127;-61
2021/11/07 06:04:27;;;;;;;1.08;0.98;;;13.30;79.70;;;;;;5134997;27;20035;-61
2021/11/07 06:06:52;;;;;;;3.20;1.17;;;13.30;79.70;;;;;;5134364;27;20042;-60
2021/11/07 06:09:18;;;;;;;2.58;1.05;;;13.30;79.70;;;;;;5134991;27;20035;-61
2021/11/07 06:11:45;;;;;;;2.33;0.90;;;13.30;79.70;;;;;;5115404;27;20111;-61
2021/11/07 06:14:11;;;;;;;2.20;0.95;;;13.30;79.70;;;;;;5134661;27;20132;-61
2021/11/07 06:16:37;;;;;;;1.73;0.70;;;13.40;79.70;;;;;;5134229;27;20031;-61
2021/11/07 06:19:03;;;;;;;1.27;0.82;;;13.40;79.80;;;;;;5133556;27;20095;-60
2021/11/07 06:21:29;;;;;;;1.85;1.02;;;13.30;79.70;;;;;;5134408;27;20042;-60
2021/11/07 06:23:56;;;;;;;2.55;1.40;;;13.30;79.70;;;;;;5134031;27;20058;-60
2021/11/07 06:26:22;;;;;;;3.03;1.00;;;13.30;79.70;;;;;;5134515;27;20035;-60
2021/11/07 06:28:48;;;;;;;1.50;1.02;;;13.30;79.70;;;;;;5134548;27;20107;-61
2021/11/07 06:31:15;;;;;;;2.05;1.15;;;13.30;79.70;;;;;;5115340;27;20051;-61
2021/11/07 06:33:40;;;;;;;2.00;1.02;;;13.30;79.60;;;;;;5133321;27;20058;-61
2021/11/07 06:36:06;;;;;;;2.25;1.50;;;13.30;79.60;;;;;;5115307;27;20043;-60
2021/11/07 06:38:32;;;;;;;1.40;0.85;;;13.30;79.60;;;;;;5133915;27;20088;-61
2021/11/07 06:40:58;;;;;;;2.70;1.05;;;13.30;79.70;;;;;;5133636;27;20059;-61
2021/11/07 06:43:26;;;;;;;2.05;1.30;;;13.20;79.60;;;;;;5133432;27;21488;-59
2021/11/07 06:45:52;;;;;;;1.48;0.88;;;13.30;79.60;;;;;;5134434;27;20035;-61
2021/11/07 06:48:18;;;;;;;2.10;0.90;;;13.30;79.60;;;;;;5133793;27;20045;-61
2021/11/07 06:50:44;;;;;;;1.85;1.08;;;13.30;79.60;;;;;;5134287;27;20047;-60
2021/11/07 06:53:09;;;;;;;2.75;1.15;;;13.30;79.60;;;;;;5134157;27;20039;-61
2021/11/07 06:55:35;;;;;;;2.53;1.08;;;13.30;79.60;;;;;;5133377;27;20039;-59
2021/11/07 06:58:02;;;;;;;2.88;0.77;;;13.40;79.70;;;;;;5134031;27;20027;-60
2021/11/07 07:00:28;;;;;;;1.23;0.88;;;13.30;79.60;;;;;;5134003;27;20047;-61
2021/11/07 07:02:54;;;;;;;2.20;1.10;;;13.30;79.60;;;;;;5133563;27;20162;-61
2021/11/07 07:05:20;;;;;;;1.42;1.15;;;13.30;79.60;;;;;;5133895;27;20394;-60
2021/11/07 07:07:53;;;;;;;2.10;1.48;;;13.30;79.50;;;;;;5134125;27;20043;-60
2021/11/07 07:10:32;;;;;;;2.83;1.25;;;13.30;79.50;;;;;;5134172;27;20050;-61
2021/11/07 07:15:27;;;;;;;2.03;1.10;;;13.30;79.60;;;;;;5134048;27;20482;-59
2021/11/07 07:28:59;;;;;;;1.40;1.00;;;13.30;79.50;;;;;;5050537;28;20056;-59
2021/11/07 07:34:06;;;;;;;1.88;0.70;;;13.30;79.50;;;;;;5030430;28;20057;-61
2021/11/07 07:36:31;;;;;;;1.60;0.80;;;13.30;79.50;;;;;;5047769;28;20040;-60
2021/11/07 07:38:58;;;;;;;1.40;0.90;;;13.30;79.50;;;;;;5049880;28;20048;-59
2021/11/07 07:41:24;;;;;;;2.58;1.20;;;13.30;79.50;;;;;;5049856;28;20063;-59
2021/11/07 07:43:51;;;;;;;1.75;0.90;;;13.30;79.40;;;;;;5049839;28;20552;-60
2021/11/07 07:46:17;;;;;;;1.42;0.93;;;13.30;79.50;;;;;;5049907;28;20184;-60
2021/11/07 07:48:45;;;;;;;2.17;1.25;;;13.30;79.50;;;;;;5047830;28;20040;-60
2021/11/07 07:51:14;;;;;;;1.40;0.73;;;13.30;79.50;;;;;;5029742;28;20433;-61
2021/11/07 07:53:41;;;;;;;2.75;1.20;;;13.20;79.40;;;;;;5014717;28;20049;-61
2021/11/07 07:56:08;;;;;;;1.45;0.85;;;13.30;79.50;;;;;;5030135;28;20050;-60
2021/11/07 07:58:35;;;;;;;1.48;0.85;;;13.30;79.50;;;;;;5031257;28;20593;-60
2021/11/07 08:01:01;;;;;;;3.28;1.10;;;13.30;79.50;;;;;;5030519;28;20100;-61
2021/11/07 08:03:28;;;;;;;1.55;1.08;;;13.30;79.50;;;;;;5030418;28;20042;-60
2021/11/07 08:05:54;;;;;;;2.17;0.77;;;13.30;79.50;;;;;;5081644;28;20124;-60
2021/11/07 08:08:20;;;;;;;1.92;1.20;;;13.30;79.40;;;;;;5112574;28;20032;-63
2021/11/07 08:10:49;;;;;;;2.25;0.80;;;13.30;79.50;;;;;;5127746;28;20065;-62
2021/11/07 08:13:15;;;;;;;2.20;0.90;;;13.30;79.40;;;;;;5133374;28;20050;-63
2021/11/07 08:15:44;;;;;;;5.63;1.13;;;13.30;79.40;;;;;;5133367;28;20065;-62
2021/11/07 08:18:12;;;;;;;1.80;0.90;;;13.30;79.40;;;;;;5133275;28;20148;-63
2021/11/07 08:20:38;;;;;;;2.15;0.90;;;13.30;79.50;;;;;;5133365;28;20088;-63
2021/11/07 08:23:04;;;;;;;2.25;1.20;;;13.30;79.50;;;;;;5133016;28;20118;-63
2021/11/07 08:25:31;;;;;;;2.47;0.85;;;13.30;79.50;;;;;;5133629;28;20035;-61
2021/11/07 08:28:02;;;;;;;1.23;0.90;;;13.30;79.50;;;;;;5133184;28;20911;-63
2021/11/07 08:30:30;;;;;;;1.67;1.02;;;13.30;79.50;;;;;;5136269;27;20469;-61
2021/11/07 08:33:00;;;;;;;1.60;0.90;;;13.30;79.50;;;;;;5118521;27;20062;-63
2021/11/07 08:35:26;;;;;;;3.90;1.80;;;13.30;79.50;;;;;;5119256;27;20047;-62
2021/11/07 08:40:32;;;;;;;2.33;0.98;;;13.40;79.50;;;;;;5136924;27;20135;-62
2021/11/07 08:54:32;;;;;;;1.85;1.05;;;13.30;79.50;;;;;;5136503;27;20054;-61
2021/11/07 09:02:16;;;;;;;1.67;1.05;;;13.30;79.50;;;;;;5145896;27;20039;-60
2021/11/07 09:04:57;;;;;;;1.50;0.98;;;13.30;79.50;;;;;;5134522;27;20039;-61
2021/11/07 09:07:36;;;;;;;1.83;0.80;;;13.30;79.50;;;;;;5136995;27;20047;-61
2021/11/07 09:10:18;;;;;;;1.95;0.80;;;13.30;79.60;;;;;;5145066;27;20072;-61
2021/11/07 09:12:45;;;;;;;2.58;1.13;;;13.30;79.50;;;;;;5143701;27;20085;-61
2021/11/07 09:15:16;;;;;;;1.73;0.93;;;13.30;79.50;;;;;;5144474;27;20501;-62
2021/11/07 09:17:44;;;;;;;2.20;1.02;;;13.30;79.60;;;;;;5143138;27;20117;-62
2021/11/07 09:20:16;;;;;;;1.58;1.02;;;13.30;79.60;;;;;;5144661;27;20110;-61
2021/11/07 09:22:53;;;;;;;1.70;1.05;;;13.30;79.50;;;;;;5114608;28;20053;-61
2021/11/07 09:28:26;;;;;;;1.38;0.98;;;13.30;79.60;;;;;;5092027;28;20043;-61
2021/11/07 09:38:29;;;;;;;2.80;1.08;;;13.30;79.60;;;;;;5099757;28;20164;-60
2021/11/07 09:41:18;;;;;;;3.30;1.17;;;13.30;79.60;;;;;;5110809;28;20047;-63
2021/11/07 09:48:43;;;;;;;1.55;0.90;;;13.30;79.50;;;;;;5065103;28;20098;-61
2021/11/07 09:51:17;;;;;;;1.50;0.80;;;13.30;79.60;;;;;;5094107;28;20056;-61
2021/11/07 09:53:49;;;;;;;3.25;1.10;;;13.30;79.50;;;;;;5101557;28;20050;-62
2021/11/07 09:56:15;;;;;;;1.35;0.70;;;13.30;79.50;;;;;;5095427;28;20047;-61
2021/11/07 09:58:43;;;;;;;1.70;0.80;;;13.30;79.50;;;;;;5100729;28;20065;-61
2021/11/07 10:01:09;;;;;;;1.90;0.63;;;13.30;79.50;;;;;;5100007;28;20048;-61
2021/11/07 10:03:39;;;;;;;1.10;0.70;;;13.40;79.60;;;;;;5117877;27;20047;-61
2021/11/07 10:06:32;;;;;;;1.67;0.80;;;13.20;79.40;;;;;;5145243;27;20062;-61
2021/11/07 10:08:59;;;;;;;1.23;0.80;;;13.30;79.40;;;;;;5141663;27;20035;-61
2021/11/07 10:11:38;;;;;;;2.10;1.02;;;13.30;79.50;;;;;;5144027;27;20030;-62
2021/11/07 10:14:21;;;;;;;2.30;0.98;;;13.30;79.50;;;;;;5145486;27;20051;-62
2021/11/07 10:16:51;;;;;;;2.22;0.85;;;13.30;79.50;;;;;;5146212;27;20087;-62
2021/11/07 10:21:52;;;;;;;2.13;0.68;;;13.30;79.50;;;;;;5134801;27;20047;-62
2021/11/07 10:24:23;;;;;;;16.77;4.22;;;13.30;79.50;;;;;;5134441;27;20110;-61
2021/11/07 10:27:12;;;;;;;10.18;2.92;;;13.20;78.50;;;;;;5135253;27;20069;-60
2021/11/07 10:29:49;;;;;;;8.75;2.15;;;13.30;78.50;;;;;;5134345;27;20047;-61
2021/11/07 10:32:26;;;;;;;5.63;1.67;;;13.20;78.60;;;;;;5135144;27;20055;-63
2021/11/07 10:38:51;;;;;;;5.75;2.25;;;13.20;78.70;;;;;;5116983;27;20487;-58
2021/11/07 10:42:07;;;;;;;7.30;1.80;;;13.20;78.80;;;;;;5113678;28;20132;-60
2021/11/07 10:52:28;;;;;;;6.47;2.17;;;13.30;79.10;;;;;;5134652;27;20099;-59
2021/11/07 10:54:56;;;;;;;7.18;1.90;;;13.30;79.10;;;;;;5134891;27;20471;-61
2021/11/07 10:57:26;;;;;;;3.80;2.00;;;13.30;79.10;;;;;;5134595;27;20091;-61
2021/11/07 11:00:27;;;;;;;5.95;2.08;;;13.30;79.20;;;;;;5115365;27;20482;-61
2021/11/07 11:02:55;;;;;;;7.82;1.85;;;13.30;79.10;;;;;;5115918;27;20047;-61
2021/11/07 11:05:26;;;;;;;5.40;1.90;;;13.30;79.20;;;;;;5134607;27;20122;-61
2021/11/07 11:08:04;;;;;;;6.13;1.67;;;13.30;79.20;;;;;;5134246;27;20039;-61
2021/11/07 11:10:43;;;;;;;6.88;2.30;;;13.30;79.20;;;;;;5134116;27;20043;-60
2021/11/07 11:19:06;;;;;;;3.92;2.15;;;13.30;79.20;;;;;;5134117;27;20104;-61
2021/11/07 11:40:13;;;;;;;6.05;1.60;;;13.30;79.30;;;;;;5030873;28;20056;-61
2021/11/07 11:42:54;;;;;;;2.50;1.15;;;13.30;79.30;;;;;;5030099;28;20303;-63
2021/11/07 11:45:25;;;;;;;5.43;1.75;;;13.30;79.30;;;;;;5014359;28;20049;-63
2021/11/07 11:48:29;;;;;;;3.10;1.35;;;13.30;79.30;;;;;;5013268;28;20145;-62
2021/11/07 12:02:43;;;;;;;2.88;1.42;;;13.30;79.30;;;;;;5030477;28;20465;-62
2021/11/07 12:05:11;;;;;;;3.50;1.40;;;13.40;79.30;;;;;;5032163;28;20128;-63
2021/11/07 12:07:47;;;;;;;4.22;1.35;;;13.40;79.40;;;;;;5034413;28;20064;-64
2021/11/07 12:10:27;;;;;;;3.25;1.55;;;13.40;79.30;;;;;;5128646;27;20086;-64
2021/11/07 12:13:01;;;;;;;4.70;1.48;;;13.40;79.30;;;;;;5137867;27;20046;-61
2021/11/07 12:15:44;;;;;;;3.70;1.80;;;13.40;79.40;;;;;;5137415;27;20039;-62
2021/11/07 12:18:10;;;;;;;4.03;1.40;;;13.40;79.30;;;;;;5119011;27;20546;-63
2021/11/07 12:20:39;;;;;;;3.22;1.55;;;13.40;79.30;;;;;;5136985;27;20407;-63
2021/11/07 12:23:28;;;;;;;4.22;1.35;;;13.40;79.30;;;;;;5137762;27;20118;-63
2021/11/07 12:25:56;;;;;;;3.78;1.35;;;13.40;79.20;;;;;;5137101;27;20067;-62
2021/11/07 12:28:42;;;;;;;2.28;1.27;;;13.40;79.30;;;;;;5118566;27;20047;-63
2021/11/07 12:31:08;;;;;;;2.47;1.10;;;13.40;79.20;;;;;;5153710;27;20398;-64
2021/11/07 12:34:12;;;;;;;2.35;1.10;;;13.40;79.30;;;;;;5137124;27;20100;-59
2021/11/07 12:42:29;;;;;;;2.28;1.45;;;13.40;79.30;;;;;;5053600;28;20041;-60
2021/11/07 12:45:26;;;;;;;2.00;1.10;;;13.40;79.30;;;;;;5053661;28;20064;-60
2021/11/07 12:47:58;;;;;;;4.55;1.40;;;13.40;79.30;;;;;;5053381;28;20068;-60
2021/11/07 12:50:23;;;;;;;2.92;1.00;;;13.40;79.30;;;;;;5053423;28;20099;-60
2021/11/07 12:52:56;;;;;;;2.58;1.40;;;13.40;79.30;;;;;;5053145;28;20511;-61
2021/11/07 12:55:26;;;;;;;3.10;1.20;;;13.40;79.30;;;;;;5053482;28;20044;-63
2021/11/07 12:57:52;;;;;;;2.22;0.98;;;13.40;79.30;;;;;;5053086;28;20044;-62
2021/11/07 13:00:18;;;;;;;3.60;1.33;;;13.40;79.30;;;;;;5036657;28;20052;-61
2021/11/07 13:02:44;;;;;;;1.73;0.95;;;13.40;79.30;;;;;;5053073;28;20141;-63
2021/11/07 13:05:22;;;;;;;3.53;1.38;;;13.40;79.30;;;;;;5053132;28;20134;-62
2021/11/07 13:07:55;;;;;;;3.42;1.27;;;13.40;79.30;;;;;;5052170;28;20443;-61
2021/11/07 13:18:49;;;;;;;2.03;1.10;;;13.40;79.30;;;;;;5120867;27;20042;-61
2021/11/07 13:34:57;;;;;;;3.10;1.23;;;13.40;79.30;;;;;;5135931;27;20051;-60
2021/11/07 13:37:26;;;;;;;1.67;0.90;;;13.40;79.20;;;;;;5136027;27;20043;-61
2021/11/07 13:39:51;;;;;;;1.92;0.80;;;13.40;79.30;;;;;;5135238;27;20050;-64
2021/11/07 13:42:17;;;;;;;3.20;1.30;;;13.40;79.30;;;;;;5117507;27;20043;-64
2021/11/07 13:44:52;;;;;;;2.08;1.15;;;13.40;79.30;;;;;;5135529;27;20114;-64
2021/11/07 13:47:17;;;;;;;1.88;1.13;;;13.40;79.30;;;;;;5135963;27;20395;-63
2021/11/07 13:49:52;;;;;;;1.55;1.10;;;13.40;79.30;;;;;;5135716;27;20042;-63
2021/11/07 13:52:18;;;;;;;2.00;1.10;;;13.40;79.30;;;;;;5122146;27;20039;-61
2021/11/07 13:54:45;;;;;;;2.72;1.30;;;13.40;79.30;;;;;;5135441;27;20122;-62
2021/11/07 13:57:11;;;;;;;2.85;1.13;;;13.50;79.30;;;;;;5135733;27;20031;-63
2021/11/07 13:59:41;;;;;;;2.65;0.90;;;13.40;79.30;;;;;;5135475;27;20043;-62
2021/11/07 14:02:17;;;;;;;2.50;1.00;;;13.40;79.30;;;;;;5099485;27;20040;-60
2021/11/07 14:04:45;;;;;;;2.88;0.93;;;13.30;79.20;;;;;;5117079;27;20051;-64
2021/11/07 14:07:23;;;;;;;1.40;1.00;;;13.50;79.30;;;;;;5117007;27;20050;-64
2021/11/07 14:10:16;;;;;;;3.58;1.35;;;13.40;79.30;;;;;;5134977;27;20039;-63
2021/11/07 14:12:57;;;;;;;2.35;1.00;;;13.40;79.20;;;;;;5134829;27;20115;-63
2021/11/07 14:15:33;;;;;;;1.17;0.80;;;13.40;79.20;;;;;;5116787;27;20047;-63
2021/11/07 14:18:18;;;;;;;10.88;2.53;;;13.40;79.30;;;;;;5135559;27;20047;-65
2021/11/07 14:20:44;;;;;;;14.95;3.50;;;13.40;77.40;;;;;;5134898;27;20554;-59
2021/11/07 14:23:42;;;;;;;9.75;2.97;;;13.20;78.00;;;;;;5115860;27;20117;-59
2021/11/07 14:26:33;;;;;;;11.07;3.15;;;13.20;78.80;;;;;;5134535;27;20504;-58
2021/11/07 14:32:43;;;;;;;10.43;3.03;;;12.90;79.80;;;;;;5135111;27;20054;-57
2021/11/07 14:37:28;;;;;;;11.48;2.47;;;13.00;80.70;;;;;;5130378;27;20523;-57
2021/11/07 14:40:08;;;;;;;12.65;3.08;;;13.00;81.70;;;;;;5133876;27;20080;-60
2021/11/07 14:42:54;;;;;;;7.93;2.40;;;13.00;81.20;;;;;;5126206;27;20050;-60
2021/11/07 14:48:06;;;;;;;8.10;2.20;;;13.00;81.50;;;;;;5133290;27;20134;-59
2021/11/07 14:53:25;;;;;;;8.35;2.55;;;13.00;81.60;;;;;;5133901;27;20460;-60
2021/11/07 14:58:50;;;;;;;7.05;2.20;;;13.00;81.80;;;;;;5114844;27;20053;-62
2021/11/07 15:04:00;;;;;;;9.82;2.70;;;13.10;81.90;;;;;;5133990;27;20042;-62
2021/11/07 15:08:55;;;;;;;8.77;2.15;;;13.10;82.10;;;;;;5133608;27;20559;-58
2021/11/07 15:16:32;;;;;;;4.72;2.08;;;13.10;82.10;;;;;;5132980;27;20055;-61
2021/11/07 15:19:23;;;;;;;5.75;1.80;;;13.10;82.00;;;;;;5133515;27;20047;-60
2021/11/07 15:22:24;;;;;;;7.82;2.13;;;13.10;82.00;;;;;;5131641;27;20046;-62
2021/11/07 15:24:46;;;;;;;5.05;2.28;;;13.10;82.00;;;;;;5129424;27;20047;-60
2021/11/07 15:27:21;;;;;;;5.70;1.85;;;13.10;82.10;;;;;;5133543;27;20047;-59
2021/11/07 15:30:03;;;;;;;8.43;2.15;;;13.10;82.10;;;;;;5133286;27;20431;-60
2021/11/07 15:32:37;;;;;;;5.70;2.00;;;13.10;82.10;;;;;;5133880;27;20086;-59
2021/11/07 15:35:29;;;;;;;4.80;1.48;;;13.10;82.10;;;;;;5133532;27;20042;-60
2021/11/07 15:37:55;;;;;;;3.55;1.80;;;13.10;82.00;;;;;;5133695;27;20383;-61
2021/11/07 15:40:32;;;;;;;4.70;1.67;;;13.10;82.10;;;;;;5133394;27;20162;-62
2021/11/07 15:42:58;;;;;;;3.40;1.77;;;13.20;82.20;;;;;;5133407;27;20053;-58
2021/11/07 15:45:25;;;;;;;4.80;1.67;;;13.10;82.00;;;;;;5131690;27;20035;-60
2021/11/07 15:53:20;;;;;;;4.60;1.50;;;13.20;82.00;;;;;;5132820;28;20518;-60
2021/11/07 15:56:10;;;;;;;4.38;1.67;;;13.20;82.00;;;;;;5133168;28;20053;-60
2021/11/07 16:14:30;;;;;;;4.10;1.83;;;13.20;81.90;;;;;;5114366;28;20051;-60
2021/11/07 16:17:09;;;;;;;4.22;1.40;;;13.20;81.90;;;;;;5132503;28;20039;-61
2021/11/07 16:19:36;;;;;;;4.60;1.50;;;13.20;81.90;;;;;;5133065;28;20039;-62
2021/11/07 16:22:03;;;;;;;2.28;1.10;;;13.20;82.00;;;;;;5133430;28;20039;-60
2021/11/07 16:24:31;;;;;;;2.40;1.05;;;13.20;81.90;;;;;;5113145;28;20044;-61
2021/11/07 16:27:00;;;;;;;5.15;1.80;;;13.20;81.90;;;;;;5132982;28;20075;-62
2021/11/07 16:29:30;;;;;;;4.40;1.38;;;13.20;81.90;;;;;;5114867;28;20051;-60
2021/11/07 16:34:29;;;;;;;2.47;0.93;;;13.20;81.80;;;;;;5132613;28;20046;-61